UNNT METAR and TAF | Updated Today

UNNT METAR

Tolmachevo Airport

Observation time: 10 min. ago

UNNT 062030Z 16003MPS 0500 0200S FG NSC 01/00 Q1031 R25/090070 R16/////// NOSIG RMK QFE763/1017

Need help? Read our tutorial on how to read METARs or read the parsed version below.

Tolmachevo Airport (UNNT) METAR

  • Weather conditions on Thu, 06 Oct 2022 20:30:00 +0000 (10 min. ago):
  • Present conditions: Fog
  • Clouds: No significant clouds are observed
  • Visibility: 500 meters
  • Wind: 160 degrees at 3 knots
  • Temperature: 1 celsius
  • Dew point: 0 celsius
  • Pressure: 1031 millibars
  • Remarks: QFE763/1017


Useful to know...

UNNT TAF

Tolmachevo Airport

TAF UNNT 061700Z 0618/0718 16003G08MPS 8000 SCT040 TEMPO 0618/0703 0150 FZFG BKN002 TEMPO 0705/0718 15007G13MPS
Observation time: 3:40 hr. ago
Need help? Read our tutorial on how to read TAFs or read the parsed version below.

Parsed version of TAF for Tolmachevo Airport (UNNT)

  • From 06 October at 18:00 UTC, to day 07 of the month at 18:00 UTC
  • Clouds: Scattered at 1219 meters
  • Visibility: 8000 meters
  • Wind: 160 degrees at 3
  • Expected to arise temporarily, from 06 October at 18:00 UTC, to day 07 of the month at 03:00 UTC
  • Clouds: Broken sky at 61 meters
  • Visibility: 150 meters
  • Other: Freezing fog
  • Expected to arise temporarily, from 07 October at 05:00 UTC, to day 07 of the month at 18:00 UTC
  • Wind: 150 degrees at 7

Airports near UNNT